createdAt,value
2023-01-04T00:00:20.978Z,3.89
2023-01-04T00:02:49.582Z,3.97
2023-01-04T00:05:18.185Z,3.94
2023-01-04T00:07:47.940Z,3.89
2023-01-04T00:10:17.786Z,3.84
2023-01-04T00:12:46.123Z,3.79
2023-01-04T00:15:14.538Z,3.64
2023-01-04T00:17:43.938Z,3.79
2023-01-04T00:20:13.093Z,3.83
2023-01-04T00:22:41.806Z,3.75
2023-01-04T00:25:11.258Z,3.70
2023-01-04T00:27:41.094Z,3.67
2023-01-04T00:30:11.147Z,3.62
2023-01-04T00:32:40.033Z,3.60
2023-01-04T00:35:09.119Z,3.39
2023-01-04T00:37:38.061Z,2.90
2023-01-04T00:40:08.091Z,3.59
2023-01-04T00:42:36.540Z,3.60
2023-01-04T00:45:07.659Z,3.56
2023-01-04T00:47:36.421Z,3.56
2023-01-04T00:50:05.573Z,3.59
2023-01-04T00:52:34.044Z,3.62
2023-01-04T00:55:02.492Z,3.54
2023-01-04T00:57:31.143Z,3.61
2023-01-04T00:59:59.505Z,3.12
2023-01-04T01:02:30.191Z,3.65
2023-01-04T01:04:58.828Z,3.64
2023-01-04T01:07:27.256Z,3.41
2023-01-04T01:09:55.753Z,3.73
2023-01-04T01:12:25.022Z,3.32
2023-01-04T01:14:58.624Z,3.74
2023-01-04T01:17:30.683Z,3.72
2023-01-04T01:19:59.095Z,3.73
2023-01-04T01:22:27.628Z,3.47
2023-01-04T01:24:56.200Z,3.77
2023-01-04T01:27:25.008Z,3.73
2023-01-04T01:29:53.448Z,3.70
2023-01-04T01:32:21.926Z,3.70
2023-01-04T01:34:52.060Z,3.67
2023-01-04T01:37:20.766Z,3.63
2023-01-04T01:39:49.584Z,3.59
2023-01-04T01:42:23.619Z,3.57
2023-01-04T01:45:04.342Z,3.58
2023-01-04T01:47:43.128Z,3.58
2023-01-04T01:50:26.907Z,3.57
2023-01-04T01:52:59.114Z,3.55
2023-01-04T01:55:32.132Z,3.53
2023-01-04T01:58:02.112Z,3.44
2023-01-04T02:00:32.462Z,3.59
2023-01-04T02:03:16.732Z,3.57
2023-01-04T02:05:51.212Z,3.58
2023-01-04T02:08:23.437Z,3.52
2023-01-04T02:10:51.904Z,3.68
2023-01-04T02:13:47.329Z,3.64
2023-01-04T02:16:31.434Z,3.70
2023-01-04T02:19:28.783Z,3.70
2023-01-04T02:22:34.548Z,3.67
2023-01-04T02:25:34.280Z,3.49
2023-01-04T02:28:19.220Z,3.58
2023-01-04T02:31:29.086Z,3.60
2023-01-04T02:34:11.712Z,3.67
2023-01-04T02:36:54.428Z,3.62
2023-01-04T02:39:42.778Z,3.54
2023-01-04T02:42:47.412Z,3.53
2023-01-04T02:45:20.288Z,3.53
2023-01-04T02:48:19.617Z,3.25
2023-01-04T02:50:56.143Z,3.31
2023-01-04T02:53:30.039Z,3.56
2023-01-04T02:56:13.718Z,3.53
2023-01-04T02:59:06.791Z,3.21
2023-01-04T03:02:04.249Z,3.40
2023-01-04T03:05:09.832Z,3.25
2023-01-04T03:07:50.039Z,3.37
2023-01-04T03:10:26.852Z,3.34
2023-01-04T03:13:07.012Z,3.34
2023-01-04T03:15:40.981Z,3.30
2023-01-04T03:18:19.337Z,2.84
2023-01-04T03:20:52.873Z,3.29
2023-01-04T03:23:44.946Z,3.24
2023-01-04T03:26:55.142Z,3.00
2023-01-04T03:29:53.368Z,3.19
2023-01-04T03:32:47.730Z,3.19
2023-01-04T03:35:56.475Z,3.16
2023-01-04T03:38:54.346Z,3.21
2023-01-04T03:41:48.699Z,3.22
2023-01-04T03:45:14.069Z,3.13
2023-01-04T03:48:07.329Z,3.25
2023-01-04T03:50:46.874Z,3.26
2023-01-04T03:53:16.621Z,3.27
2023-01-04T03:55:49.739Z,3.32
2023-01-04T03:58:20.230Z,3.35
2023-01-04T04:00:49.627Z,3.19
2023-01-04T04:03:18.149Z,3.28
2023-01-04T04:06:05.306Z,3.26
2023-01-04T04:08:33.986Z,3.21
2023-01-04T04:11:19.430Z,3.03
2023-01-04T04:13:48.316Z,2.60
2023-01-04T04:16:17.977Z,3.12
2023-01-04T04:18:48.167Z,3.11
2023-01-04T04:21:17.033Z,3.07
2023-01-04T04:23:46.795Z,2.77
2023-01-04T04:26:16.781Z,3.03
2023-01-04T04:28:45.635Z,2.84
2023-01-04T04:31:14.573Z,2.43
2023-01-04T04:33:43.075Z,2.85
2023-01-04T04:36:12.822Z,2.81
2023-01-04T04:38:41.269Z,3.16
2023-01-04T04:41:29.614Z,3.17
2023-01-04T04:44:00.239Z,2.88
2023-01-04T04:46:28.902Z,3.12
2023-01-04T04:48:57.400Z,3.18
2023-01-04T04:51:25.889Z,3.20
2023-01-04T04:53:54.301Z,3.23
2023-01-04T04:56:23.111Z,3.24
2023-01-04T04:58:51.891Z,3.24
2023-01-04T05:01:21.951Z,3.14
2023-01-04T05:03:50.447Z,3.04
2023-01-04T05:06:18.805Z,3.28
2023-01-04T05:08:47.633Z,3.30
2023-01-04T05:11:16.407Z,3.29
2023-01-04T05:13:43.851Z,2.98
2023-01-04T05:16:12.657Z,3.29
2023-01-04T05:18:45.283Z,3.28
2023-01-04T05:21:18.397Z,3.24
2023-01-04T05:23:48.600Z,3.24
2023-01-04T05:26:17.124Z,2.69
2023-01-04T05:28:51.558Z,3.26
2023-01-04T05:31:21.339Z,3.29
2023-01-04T05:33:51.161Z,3.20
2023-01-04T05:36:19.590Z,3.25
2023-01-04T05:38:47.997Z,3.37
2023-01-04T05:41:33.228Z,3.47
2023-01-04T05:44:01.662Z,3.49
2023-01-04T05:49:13.678Z,3.57
2023-01-04T05:51:42.561Z,3.64
2023-01-04T05:54:10.902Z,3.72
2023-01-04T05:56:39.380Z,3.76
2023-01-04T05:59:07.983Z,3.82
2023-01-04T06:01:36.795Z,3.85
2023-01-04T06:04:05.304Z,3.91
2023-01-04T06:06:35.177Z,3.96
2023-01-04T06:09:03.607Z,3.98
2023-01-04T06:11:32.056Z,4.01
2023-01-04T06:14:00.768Z,4.04
2023-01-04T06:16:29.288Z,4.04
2023-01-04T06:18:57.945Z,4.10
2023-01-04T06:21:26.437Z,4.15
2023-01-04T06:23:56.551Z,4.23
2023-01-04T06:26:24.982Z,4.28
2023-01-04T06:28:53.336Z,4.27
2023-01-04T06:31:21.781Z,4.28
2023-01-04T06:33:50.320Z,4.25
2023-01-04T06:36:19.460Z,4.25
2023-01-04T06:38:48.995Z,4.21
2023-01-04T06:41:18.795Z,4.21
2023-01-04T06:43:47.552Z,4.21
2023-01-04T06:46:16.266Z,4.23
2023-01-04T06:48:44.997Z,4.23
2023-01-04T06:51:14.182Z,4.13
2023-01-04T06:53:45.217Z,4.28
2023-01-04T06:56:13.847Z,4.30
2023-01-04T06:58:43.878Z,4.29
2023-01-04T07:01:12.720Z,4.44
2023-01-04T07:03:41.321Z,4.27
2023-01-04T07:06:10.648Z,4.42
2023-01-04T07:08:40.909Z,4.30
2023-01-04T07:11:09.424Z,4.17
2023-01-04T07:13:37.823Z,4.77
2023-01-04T07:16:08.402Z,4.83
2023-01-04T07:18:37.919Z,4.92
2023-01-04T07:21:07.283Z,4.97
2023-01-04T07:23:35.857Z,5.04
2023-01-04T07:26:04.739Z,4.86
2023-01-04T07:28:59.191Z,5.16
2023-01-04T07:31:29.114Z,5.28
2023-01-04T07:33:58.196Z,5.32
2023-01-04T07:36:26.696Z,5.34
2023-01-04T07:38:55.153Z,5.36
2023-01-04T07:41:23.526Z,5.39
2023-01-04T07:43:52.024Z,5.18
2023-01-04T07:46:22.072Z,5.43
2023-01-04T07:48:52.037Z,5.44
2023-01-04T07:51:20.508Z,5.36
2023-01-04T07:53:48.887Z,4.71
2023-01-04T07:56:18.999Z,5.63
2023-01-04T07:58:47.587Z,5.68
2023-01-04T08:01:18.737Z,5.64
2023-01-04T08:03:49.076Z,5.77
2023-01-04T08:06:20.478Z,5.83
2023-01-04T08:08:49.589Z,5.50
2023-01-04T08:11:22.473Z,6.04
2023-01-04T08:13:50.851Z,6.18
2023-01-04T08:16:27.694Z,6.33
2023-01-04T08:18:59.981Z,6.42
2023-01-04T08:21:32.811Z,6.50
2023-01-04T08:24:01.348Z,6.58
2023-01-04T08:26:30.463Z,6.68
2023-01-04T08:28:59.326Z,6.81
2023-01-04T08:31:31.002Z,6.69
2023-01-04T08:34:02.330Z,7.05
2023-01-04T08:36:35.111Z,6.92
2023-01-04T08:39:06.778Z,6.74
2023-01-04T08:42:02.643Z,7.27
2023-01-04T08:44:36.288Z,7.37
2023-01-04T08:47:05.055Z,7.17
2023-01-04T08:49:33.580Z,7.50
2023-01-04T08:52:03.383Z,7.77
2023-01-04T08:54:31.821Z,7.64
2023-01-04T08:57:00.178Z,8.10
2023-01-04T08:59:28.721Z,8.12
2023-01-04T09:02:04.522Z,8.04
2023-01-04T09:04:34.280Z,7.96
2023-01-04T09:07:04.111Z,7.89
2023-01-04T09:09:32.752Z,7.80
2023-01-04T09:12:03.023Z,7.67
2023-01-04T09:14:31.481Z,7.65
2023-01-04T09:16:59.847Z,7.64
2023-01-04T09:19:28.423Z,7.65
2023-01-04T09:21:56.832Z,7.49
2023-01-04T09:24:26.975Z,7.70
2023-01-04T09:26:55.556Z,7.67
2023-01-04T09:29:24.649Z,7.64
2023-01-04T09:31:53.314Z,7.62
2023-01-04T09:34:22.463Z,7.62
2023-01-04T09:36:52.271Z,7.64
2023-01-04T09:39:23.738Z,7.65
2023-01-04T09:42:00.362Z,7.61
2023-01-04T09:47:41.168Z,7.47
2023-01-04T09:50:24.856Z,7.44
2023-01-04T09:53:05.718Z,7.53
2023-01-04T09:55:41.636Z,7.60
2023-01-04T09:58:26.905Z,7.64
2023-01-04T10:01:04.860Z,7.82
2023-01-04T10:03:36.703Z,7.76
2023-01-04T10:06:09.328Z,7.53
2023-01-04T10:08:38.094Z,7.85
2023-01-04T10:12:46.370Z,7.75
2023-01-04T10:15:36.565Z,7.62
2023-01-04T10:21:34.145Z,7.78
2023-01-04T10:24:35.390Z,7.65
2023-01-04T10:27:12.916Z,7.72
2023-01-04T10:29:52.357Z,7.78
2023-01-04T10:32:38.133Z,7.72
2023-01-04T10:35:20.729Z,7.69
2023-01-04T10:37:54.057Z,7.66
2023-01-04T10:40:22.717Z,7.69
2023-01-04T10:43:04.420Z,7.70
2023-01-04T10:45:44.642Z,7.45
2023-01-04T10:48:28.476Z,7.44
2023-01-04T10:51:07.038Z,7.42
2023-01-04T10:53:46.728Z,7.44
2023-01-04T10:56:27.544Z,7.63
2023-01-04T10:59:07.644Z,7.58
2023-01-04T11:01:42.965Z,7.06
2023-01-04T11:04:21.353Z,7.69
2023-01-04T11:06:57.093Z,7.66
2023-01-04T11:09:28.966Z,7.73
2023-01-04T11:11:59.030Z,7.83
2023-01-04T11:14:33.362Z,7.81
2023-01-04T11:17:09.050Z,7.93
2023-01-04T11:19:39.639Z,6.91
2023-01-04T11:22:20.726Z,7.00
2023-01-04T11:27:53.289Z,8.40
2023-01-04T11:30:26.262Z,8.47
2023-01-04T11:33:03.067Z,8.15
2023-01-04T11:35:43.481Z,8.27
2023-01-04T11:38:19.557Z,8.37
2023-01-04T11:41:01.714Z,8.37
2023-01-04T11:43:32.378Z,8.31
2023-01-04T11:46:04.972Z,8.34
2023-01-04T11:48:46.588Z,8.40
2023-01-04T11:51:36.630Z,8.46
2023-01-04T11:54:07.615Z,8.30
2023-01-04T11:56:39.661Z,8.48
2023-01-04T11:59:25.474Z,8.50
2023-01-04T12:02:42.703Z,8.53
2023-01-04T12:05:28.788Z,8.64
2023-01-04T12:08:02.511Z,8.82
2023-01-04T12:10:31.461Z,8.72
2023-01-04T12:13:03.008Z,8.61
2023-01-04T12:15:45.241Z,8.89
2023-01-04T12:18:23.799Z,8.88
2023-01-04T12:20:52.543Z,8.80
2023-01-04T12:23:24.104Z,8.94
2023-01-04T12:25:55.090Z,8.98
2023-01-04T12:28:35.536Z,9.06
2023-01-04T12:31:35.591Z,9.05
2023-01-04T12:34:42.123Z,8.97
2023-01-04T12:37:28.027Z,9.02
2023-01-04T12:39:58.074Z,8.87
2023-01-04T12:42:27.283Z,8.84
2023-01-04T12:45:21.418Z,9.08
2023-01-04T12:48:12.748Z,8.99
2023-01-04T12:51:33.869Z,9.07
2023-01-04T12:54:06.311Z,8.90
2023-01-04T12:57:30.652Z,8.84
2023-01-04T13:00:02.860Z,8.71
2023-01-04T13:02:33.652Z,8.78
2023-01-04T13:08:16.284Z,8.76
2023-01-04T13:10:51.663Z,8.65
2023-01-04T13:13:37.229Z,8.54
2023-01-04T13:16:24.598Z,8.60
2023-01-04T13:18:59.964Z,8.53
2023-01-04T13:21:34.482Z,8.31
2023-01-04T13:24:07.887Z,8.13
2023-01-04T13:26:43.337Z,8.46
2023-01-04T13:29:21.883Z,8.22
2023-01-04T13:32:00.221Z,8.44
2023-01-04T13:34:33.869Z,8.46
2023-01-04T13:37:19.192Z,8.48
2023-01-04T13:39:51.720Z,8.20
2023-01-04T13:42:29.202Z,8.53
2023-01-04T13:45:48.435Z,8.21
2023-01-04T13:48:22.251Z,8.44
2023-01-04T13:51:02.725Z,8.35
2023-01-04T13:53:32.969Z,8.29
2023-01-04T13:56:04.627Z,8.31
2023-01-04T13:58:35.158Z,8.30
2023-01-04T14:01:14.289Z,8.25
2023-01-04T14:03:48.898Z,8.19
2023-01-04T14:06:26.550Z,8.16
2023-01-04T14:09:05.423Z,8.18
2023-01-04T14:12:09.075Z,7.88
2023-01-04T14:15:09.796Z,8.19
2023-01-04T14:17:50.755Z,8.20
2023-01-04T14:20:37.883Z,8.23
2023-01-04T14:23:06.652Z,8.23
2023-01-04T14:25:45.946Z,8.02
2023-01-04T14:28:49.669Z,8.31
2023-01-04T14:31:34.724Z,7.97
2023-01-04T14:34:15.715Z,7.92
2023-01-04T14:36:45.176Z,7.92
2023-01-04T14:39:36.412Z,8.08
2023-01-04T14:42:05.801Z,8.20
2023-01-04T14:44:36.240Z,8.35
2023-01-04T14:47:12.912Z,8.11
2023-01-04T14:49:42.762Z,8.38
2023-01-04T14:52:20.009Z,8.38
2023-01-04T14:54:51.792Z,7.97
2023-01-04T14:57:22.072Z,8.35
2023-01-04T14:59:50.625Z,8.24
2023-01-04T15:02:20.409Z,8.32
2023-01-04T15:04:50.406Z,8.32
2023-01-04T15:07:35.995Z,8.31
2023-01-04T15:10:07.454Z,7.62
2023-01-04T15:27:43.069Z,6.86
2023-01-04T15:31:30.037Z,6.99
2023-01-04T15:34:01.151Z,8.48
2023-01-04T15:36:29.610Z,8.29
2023-01-04T15:38:58.243Z,8.53
2023-01-04T15:41:41.975Z,8.58
2023-01-04T15:44:12.503Z,8.61
2023-01-04T15:46:45.442Z,8.60
2023-01-04T15:49:17.610Z,8.61
2023-01-04T15:51:47.152Z,8.63
2023-01-04T15:54:17.225Z,8.30
2023-01-04T15:56:47.087Z,8.69
2023-01-04T15:59:15.604Z,8.75
2023-01-04T16:01:44.324Z,8.70
2023-01-04T16:04:13.187Z,8.68
2023-01-04T16:06:42.453Z,8.70
2023-01-04T16:09:11.320Z,8.68
2023-01-04T16:12:01.135Z,8.66
2023-01-04T16:14:31.046Z,8.70
2023-01-04T16:16:59.490Z,8.70
2023-01-04T16:19:28.003Z,8.41
2023-01-04T16:21:56.520Z,8.62
2023-01-04T16:27:15.251Z,8.56
2023-01-04T16:29:45.057Z,8.82
2023-01-04T16:32:13.616Z,8.82
2023-01-04T16:34:42.351Z,8.82
2023-01-04T16:37:10.908Z,8.25
2023-01-04T16:42:29.539Z,8.90
2023-01-04T16:44:59.245Z,8.92
2023-01-04T16:47:27.702Z,8.93
2023-01-04T16:49:56.548Z,8.97
2023-01-04T16:52:27.305Z,9.00
2023-01-04T16:54:55.813Z,8.95
2023-01-04T16:57:24.849Z,9.02
2023-01-04T16:59:53.466Z,9.00
2023-01-04T17:02:25.170Z,8.89
2023-01-04T17:04:57.132Z,8.78
2023-01-04T17:07:27.454Z,8.84
2023-01-04T17:09:55.988Z,8.81
2023-01-04T17:15:41.850Z,8.58
2023-01-04T17:18:04.477Z,8.88
2023-01-04T17:20:33.252Z,8.85
2023-01-04T17:23:01.689Z,8.89
2023-01-04T17:25:30.605Z,8.79
2023-01-04T17:27:59.076Z,8.80
2023-01-04T17:30:27.553Z,8.83
2023-01-04T17:32:56.295Z,8.50
2023-01-04T17:35:26.457Z,8.67
2023-01-04T17:37:56.399Z,8.21
2023-01-04T17:40:27.711Z,8.84
2023-01-04T17:42:58.004Z,8.87
2023-01-04T17:45:29.426Z,8.85
2023-01-04T17:47:58.690Z,8.60
2023-01-04T17:50:31.432Z,8.96
2023-01-04T17:53:00.736Z,9.13
2023-01-04T17:55:29.678Z,9.02
2023-01-04T17:58:02.377Z,9.20
2023-01-04T18:00:33.038Z,8.94
2023-01-04T18:03:01.639Z,9.12
2023-01-04T18:05:39.485Z,9.23
2023-01-04T18:09:03.003Z,9.16
2023-01-04T18:12:08.987Z,8.52
2023-01-04T18:15:31.070Z,8.00
2023-01-04T18:25:04.328Z,8.46
2023-01-04T18:27:33.466Z,9.36
2023-01-04T18:30:02.499Z,9.35
2023-01-04T18:32:34.451Z,9.37
2023-01-04T18:35:05.477Z,9.40
2023-01-04T18:37:36.497Z,9.41
2023-01-04T18:40:06.534Z,9.29
2023-01-04T18:42:35.147Z,8.91
2023-01-04T18:45:05.045Z,8.90
2023-01-04T18:47:35.502Z,9.61
2023-01-04T18:50:04.242Z,8.24
2023-01-04T18:52:35.441Z,9.66
2023-01-04T18:55:06.707Z,9.53
2023-01-04T18:57:36.298Z,9.72
2023-01-04T19:00:06.616Z,9.71
2023-01-04T19:02:38.270Z,9.77
2023-01-04T19:05:07.697Z,9.83
2023-01-04T19:07:40.281Z,8.81
2023-01-04T19:10:10.270Z,9.92
2023-01-04T19:12:38.985Z,9.93
2023-01-04T19:15:10.330Z,9.97
2023-01-04T19:17:39.226Z,9.51
2023-01-04T19:20:09.128Z,9.95
2023-01-04T19:22:39.240Z,9.94
2023-01-04T19:25:08.339Z,9.95
2023-01-04T19:27:37.116Z,9.97
2023-01-04T19:30:08.059Z,9.99
2023-01-04T19:32:37.062Z,9.86
2023-01-04T19:35:07.395Z,9.97
2023-01-04T19:37:36.398Z,9.95
2023-01-04T19:40:08.369Z,9.93
2023-01-04T19:42:37.554Z,9.36
2023-01-04T19:45:08.614Z,9.90
2023-01-04T19:47:37.554Z,9.89
2023-01-04T19:50:07.771Z,9.78
2023-01-04T19:52:36.617Z,9.56
2023-01-04T19:55:07.783Z,9.40
2023-01-04T19:57:36.892Z,9.72
2023-01-04T20:00:08.066Z,9.50
2023-01-04T20:02:36.976Z,9.63
2023-01-04T20:05:06.956Z,9.02
2023-01-04T20:07:35.675Z,9.59
2023-01-04T20:10:12.106Z,8.96
2023-01-04T20:12:42.559Z,9.56
2023-01-04T20:15:13.379Z,9.16
2023-01-04T20:17:42.538Z,9.56
2023-01-04T20:20:12.585Z,9.55
2023-01-04T20:22:41.005Z,9.57
2023-01-04T20:25:11.159Z,9.57
2023-01-04T20:27:39.655Z,9.57
2023-01-04T20:30:10.384Z,9.29
2023-01-04T20:32:38.976Z,9.61
2023-01-04T20:35:08.567Z,9.59
2023-01-04T20:37:36.955Z,8.73
2023-01-04T20:40:06.722Z,9.57
2023-01-04T20:42:53.798Z,9.60
2023-01-04T20:45:22.241Z,9.51
2023-01-04T20:47:50.614Z,9.48
2023-01-04T20:50:19.017Z,9.47
2023-01-04T20:52:47.444Z,9.13
2023-01-04T20:55:17.676Z,9.61
2023-01-04T20:57:47.633Z,9.76
2023-01-04T21:00:17.134Z,9.82
2023-01-04T21:02:45.839Z,9.66
2023-01-04T21:05:14.536Z,9.78
2023-01-04T21:07:43.026Z,10.09
2023-01-04T21:10:11.522Z,10.15
2023-01-04T21:12:40.036Z,10.18
2023-01-04T21:15:11.241Z,10.22
2023-01-04T21:17:39.933Z,10.05
2023-01-04T21:20:09.415Z,10.34
2023-01-04T21:22:37.909Z,10.41
2023-01-04T21:25:13.592Z,9.84
2023-01-04T21:27:42.032Z,10.50
2023-01-04T21:30:13.785Z,10.57
2023-01-04T21:32:42.393Z,10.37
2023-01-04T21:35:11.149Z,10.54
2023-01-04T21:37:39.566Z,10.61
2023-01-04T21:40:09.469Z,10.66
2023-01-04T21:42:38.052Z,10.70
2023-01-04T21:45:08.090Z,10.73
2023-01-04T21:47:38.653Z,10.42
2023-01-04T21:50:13.293Z,10.28
2023-01-04T21:52:47.172Z,10.68
2023-01-04T21:55:15.586Z,9.60
2023-01-04T21:57:43.934Z,10.60
2023-01-04T22:00:13.737Z,10.53
2023-01-04T22:02:44.620Z,10.44
2023-01-04T22:05:13.157Z,10.39
2023-01-04T22:07:41.606Z,10.35
2023-01-04T22:10:10.708Z,10.27
2023-01-04T22:12:39.101Z,10.21
2023-01-04T22:15:09.270Z,10.16
2023-01-04T22:17:37.818Z,9.35
2023-01-04T22:20:09.144Z,10.09
2023-01-04T22:22:37.601Z,10.06
2023-01-04T22:25:07.354Z,10.05
2023-01-04T22:27:36.030Z,9.80
2023-01-04T22:30:05.527Z,8.84
2023-01-04T22:32:34.112Z,9.25
2023-01-04T22:35:02.602Z,9.18
2023-01-04T22:37:32.434Z,8.69
2023-01-04T22:40:00.900Z,9.62
2023-01-04T22:42:29.480Z,9.95
2023-01-04T22:44:57.957Z,9.90
2023-01-04T22:47:26.451Z,9.69
2023-01-04T22:49:54.957Z,9.94
2023-01-04T22:52:23.435Z,9.27
2023-01-04T22:54:53.205Z,9.61
2023-01-04T22:57:21.799Z,9.92
2023-01-04T22:59:50.181Z,9.90
2023-01-04T23:02:18.734Z,9.93
2023-01-04T23:04:47.158Z,9.92
2023-01-04T23:07:16.747Z,9.40
2023-01-04T23:09:45.109Z,9.93
2023-01-04T23:12:14.953Z,9.94
2023-01-04T23:14:43.514Z,9.91
2023-01-04T23:17:11.911Z,9.89
2023-01-04T23:19:40.349Z,9.26
2023-01-04T23:22:08.873Z,9.91
2023-01-04T23:24:39.512Z,9.89
2023-01-04T23:27:08.055Z,8.75
2023-01-04T23:29:37.844Z,9.90
2023-01-04T23:32:07.142Z,9.90
2023-01-04T23:34:35.659Z,9.86
2023-01-04T23:37:04.185Z,9.81
2023-01-04T23:39:32.999Z,9.80
2023-01-04T23:42:01.392Z,9.16
2023-01-04T23:44:32.211Z,9.67
2023-01-04T23:49:39.704Z,9.32
2023-01-04T23:52:09.400Z,9.53
2023-01-04T23:54:40.700Z,9.53
2023-01-04T23:57:09.087Z,9.56
2023-01-04T23:59:37.906Z,9.59
